sensor_id;sensor_type;location;lat;lon;timestamp;P1;durP1;ratioP1;P2;durP2;ratioP2
25237;SDS011;13185;50.872;5.306;2023-08-06T00:00:13;3.13;;;0.75;;
25237;SDS011;13185;50.872;5.306;2023-08-06T00:02:41;1.65;;;0.50;;
25237;SDS011;13185;50.872;5.306;2023-08-06T00:05:07;1.70;;;0.50;;
25237;SDS011;13185;50.872;5.306;2023-08-06T00:07:32;4.22;;;0.63;;
25237;SDS011;13185;50.872;5.306;2023-08-06T00:09:58;4.22;;;0.80;;
25237;SDS011;13185;50.872;5.306;2023-08-06T00:12:23;2.67;;;0.80;;
25237;SDS011;13185;50.872;5.306;2023-08-06T00:14:52;5.20;;;0.70;;
25237;SDS011;13185;50.872;5.306;2023-08-06T00:17:18;4.20;;;0.60;;
25237;SDS011;13185;50.872;5.306;2023-08-06T00:19:44;2.03;;;0.70;;
25237;SDS011;13185;50.872;5.306;2023-08-06T00:22:10;3.83;;;0.65;;
25237;SDS011;13185;50.872;5.306;2023-08-06T00:24:35;2.30;;;1.00;;
25237;SDS011;13185;50.872;5.306;2023-08-06T00:27:01;1.67;;;0.55;;
25237;SDS011;13185;50.872;5.306;2023-08-06T00:29:27;1.38;;;0.57;;
25237;SDS011;13185;50.872;5.306;2023-08-06T00:31:53;0.93;;;0.50;;
25237;SDS011;13185;50.872;5.306;2023-08-06T00:34:18;4.55;;;0.65;;
25237;SDS011;13185;50.872;5.306;2023-08-06T00:36:44;3.55;;;0.70;;
25237;SDS011;13185;50.872;5.306;2023-08-06T00:39:09;4.72;;;1.35;;
25237;SDS011;13185;50.872;5.306;2023-08-06T00:41:35;2.35;;;0.50;;
25237;SDS011;13185;50.872;5.306;2023-08-06T00:44:00;3.45;;;0.68;;
25237;SDS011;13185;50.872;5.306;2023-08-06T00:46:26;3.28;;;0.50;;
25237;SDS011;13185;50.872;5.306;2023-08-06T00:48:52;2.58;;;0.73;;
25237;SDS011;13185;50.872;5.306;2023-08-06T00:51:18;3.55;;;0.55;;
25237;SDS011;13185;50.872;5.306;2023-08-06T00:53:44;4.22;;;0.80;;
25237;SDS011;13185;50.872;5.306;2023-08-06T00:56:10;3.15;;;0.57;;
25237;SDS011;13185;50.872;5.306;2023-08-06T00:58:38;1.77;;;0.50;;
25237;SDS011;13185;50.872;5.306;2023-08-06T01:01:04;2.38;;;0.68;;
25237;SDS011;13185;50.872;5.306;2023-08-06T01:03:32;1.55;;;0.55;;
25237;SDS011;13185;50.872;5.306;2023-08-06T01:06:00;1.98;;;0.30;;
25237;SDS011;13185;50.872;5.306;2023-08-06T01:13:33;1.60;;;0.47;;
25237;SDS011;13185;50.872;5.306;2023-08-06T01:16:15;2.05;;;0.40;;
25237;SDS011;13185;50.872;5.306;2023-08-06T01:18:43;2.65;;;0.50;;
25237;SDS011;13185;50.872;5.306;2023-08-06T01:21:18;2.45;;;0.52;;
25237;SDS011;13185;50.872;5.306;2023-08-06T01:23:44;2.92;;;0.50;;
25237;SDS011;13185;50.872;5.306;2023-08-06T01:26:33;2.53;;;0.82;;
25237;SDS011;13185;50.872;5.306;2023-08-06T01:29:11;2.65;;;0.32;;
25237;SDS011;13185;50.872;5.306;2023-08-06T01:31:43;1.08;;;0.35;;
25237;SDS011;13185;50.872;5.306;2023-08-06T01:34:10;2.35;;;0.40;;
25237;SDS011;13185;50.872;5.306;2023-08-06T01:36:42;4.22;;;0.45;;
25237;SDS011;13185;50.872;5.306;2023-08-06T01:39:08;1.88;;;0.60;;
25237;SDS011;13185;50.872;5.306;2023-08-06T01:41:33;1.48;;;0.45;;
25237;SDS011;13185;50.872;5.306;2023-08-06T01:43:59;1.85;;;0.22;;
25237;SDS011;13185;50.872;5.306;2023-08-06T01:46:25;1.30;;;0.40;;
25237;SDS011;13185;50.872;5.306;2023-08-06T01:48:51;1.90;;;0.30;;
25237;SDS011;13185;50.872;5.306;2023-08-06T01:51:16;2.75;;;0.55;;
25237;SDS011;13185;50.872;5.306;2023-08-06T01:53:43;2.70;;;0.82;;
25237;SDS011;13185;50.872;5.306;2023-08-06T01:56:08;2.05;;;0.30;;
25237;SDS011;13185;50.872;5.306;2023-08-06T01:58:34;2.28;;;0.38;;
25237;SDS011;13185;50.872;5.306;2023-08-06T02:01:00;2.45;;;0.20;;
25237;SDS011;13185;50.872;5.306;2023-08-06T02:03:27;1.58;;;0.20;;
25237;SDS011;13185;50.872;5.306;2023-08-06T02:05:53;1.00;;;0.30;;
25237;SDS011;13185;50.872;5.306;2023-08-06T02:08:19;1.40;;;0.25;;
25237;SDS011;13185;50.872;5.306;2023-08-06T02:10:45;0.73;;;0.20;;
25237;SDS011;13185;50.872;5.306;2023-08-06T02:13:11;3.47;;;0.30;;
25237;SDS011;13185;50.872;5.306;2023-08-06T02:15:43;3.70;;;0.32;;
25237;SDS011;13185;50.872;5.306;2023-08-06T02:18:11;0.93;;;0.75;;
25237;SDS011;13185;50.872;5.306;2023-08-06T02:20:36;1.70;;;0.40;;
25237;SDS011;13185;50.872;5.306;2023-08-06T02:23:02;2.65;;;0.30;;
25237;SDS011;13185;50.872;5.306;2023-08-06T02:25:27;3.65;;;0.85;;
25237;SDS011;13185;50.872;5.306;2023-08-06T02:27:53;1.30;;;0.30;;
25237;SDS011;13185;50.872;5.306;2023-08-06T02:30:21;1.30;;;0.22;;
25237;SDS011;13185;50.872;5.306;2023-08-06T02:32:46;2.30;;;0.47;;
25237;SDS011;13185;50.872;5.306;2023-08-06T02:35:12;1.17;;;0.47;;
25237;SDS011;13185;50.872;5.306;2023-08-06T02:37:44;1.27;;;0.20;;
25237;SDS011;13185;50.872;5.306;2023-08-06T02:42:48;2.40;;;0.20;;
25237;SDS011;13185;50.872;5.306;2023-08-06T02:45:15;0.40;;;0.20;;
25237;SDS011;13185;50.872;5.306;2023-08-06T02:47:40;0.65;;;0.17;;
25237;SDS011;13185;50.872;5.306;2023-08-06T02:50:06;4.20;;;0.82;;
25237;SDS011;13185;50.872;5.306;2023-08-06T02:52:32;4.22;;;0.85;;
25237;SDS011;13185;50.872;5.306;2023-08-06T02:55:00;0.90;;;0.38;;
25237;SDS011;13185;50.872;5.306;2023-08-06T02:57:28;1.33;;;0.20;;
25237;SDS011;13185;50.872;5.306;2023-08-06T02:59:56;4.38;;;0.40;;
25237;SDS011;13185;50.872;5.306;2023-08-06T03:02:22;2.15;;;0.50;;
25237;SDS011;13185;50.872;5.306;2023-08-06T03:05:08;2.15;;;0.50;;
25237;SDS011;13185;50.872;5.306;2023-08-06T03:07:38;1.42;;;0.65;;
25237;SDS011;13185;50.872;5.306;2023-08-06T03:10:12;1.92;;;0.90;;
25237;SDS011;13185;50.872;5.306;2023-08-06T03:12:38;1.75;;;0.63;;
25237;SDS011;13185;50.872;5.306;2023-08-06T03:15:05;0.80;;;0.65;;
25237;SDS011;13185;50.872;5.306;2023-08-06T03:17:33;1.98;;;1.00;;
25237;SDS011;13185;50.872;5.306;2023-08-06T03:19:59;3.28;;;1.15;;
25237;SDS011;13185;50.872;5.306;2023-08-06T03:22:25;3.55;;;1.00;;
25237;SDS011;13185;50.872;5.306;2023-08-06T03:24:51;2.58;;;0.80;;
25237;SDS011;13185;50.872;5.306;2023-08-06T03:27:18;2.13;;;1.20;;
25237;SDS011;13185;50.872;5.306;2023-08-06T03:29:44;5.28;;;1.60;;
25237;SDS011;13185;50.872;5.306;2023-08-06T03:32:09;3.30;;;1.60;;
25237;SDS011;13185;50.872;5.306;2023-08-06T03:34:36;5.75;;;2.03;;
25237;SDS011;13185;50.872;5.306;2023-08-06T03:37:07;6.43;;;2.05;;
25237;SDS011;13185;50.872;5.306;2023-08-06T03:39:33;4.07;;;1.83;;
25237;SDS011;13185;50.872;5.306;2023-08-06T03:41:58;4.38;;;2.08;;
25237;SDS011;13185;50.872;5.306;2023-08-06T03:44:25;5.85;;;2.20;;
25237;SDS011;13185;50.872;5.306;2023-08-06T03:46:52;3.58;;;2.25;;
25237;SDS011;13185;50.872;5.306;2023-08-06T03:49:18;3.50;;;1.83;;
25237;SDS011;13185;50.872;5.306;2023-08-06T03:51:43;3.67;;;2.10;;
25237;SDS011;13185;50.872;5.306;2023-08-06T03:54:09;4.38;;;2.13;;
25237;SDS011;13185;50.872;5.306;2023-08-06T03:56:38;2.63;;;1.67;;
25237;SDS011;13185;50.872;5.306;2023-08-06T03:59:03;4.15;;;2.40;;
25237;SDS011;13185;50.872;5.306;2023-08-06T04:01:29;6.32;;;2.40;;
25237;SDS011;13185;50.872;5.306;2023-08-06T04:03:55;3.63;;;2.17;;
25237;SDS011;13185;50.872;5.306;2023-08-06T04:06:20;4.22;;;2.10;;
25237;SDS011;13185;50.872;5.306;2023-08-06T04:08:55;6.07;;;2.17;;
25237;SDS011;13185;50.872;5.306;2023-08-06T04:11:21;3.25;;;2.08;;
25237;SDS011;13185;50.872;5.306;2023-08-06T04:13:49;9.70;;;3.22;;
25237;SDS011;13185;50.872;5.306;2023-08-06T04:16:23;6.38;;;2.67;;
25237;SDS011;13185;50.872;5.306;2023-08-06T04:18:49;6.20;;;2.80;;
25237;SDS011;13185;50.872;5.306;2023-08-06T04:21:14;7.65;;;2.67;;
25237;SDS011;13185;50.872;5.306;2023-08-06T04:23:40;8.48;;;2.83;;
25237;SDS011;13185;50.872;5.306;2023-08-06T04:26:07;4.55;;;2.28;;
25237;SDS011;13185;50.872;5.306;2023-08-06T04:28:37;5.45;;;2.55;;
25237;SDS011;13185;50.872;5.306;2023-08-06T04:31:21;5.15;;;2.15;;
25237;SDS011;13185;50.872;5.306;2023-08-06T04:33:50;5.18;;;2.47;;
25237;SDS011;13185;50.872;5.306;2023-08-06T04:36:30;3.92;;;2.53;;
25237;SDS011;13185;50.872;5.306;2023-08-06T04:38:55;7.18;;;2.30;;
25237;SDS011;13185;50.872;5.306;2023-08-06T04:41:23;6.00;;;2.00;;
25237;SDS011;13185;50.872;5.306;2023-08-06T04:44:01;7.57;;;2.20;;
25237;SDS011;13185;50.872;5.306;2023-08-06T04:46:44;4.60;;;2.20;;
25237;SDS011;13185;50.872;5.306;2023-08-06T04:49:09;5.90;;;2.50;;
25237;SDS011;13185;50.872;5.306;2023-08-06T04:51:35;8.73;;;3.03;;
25237;SDS011;13185;50.872;5.306;2023-08-06T04:54:01;6.22;;;2.80;;
25237;SDS011;13185;50.872;5.306;2023-08-06T04:56:26;5.80;;;2.67;;
25237;SDS011;13185;50.872;5.306;2023-08-06T04:58:58;4.13;;;2.28;;
25237;SDS011;13185;50.872;5.306;2023-08-06T05:01:24;4.43;;;2.38;;
25237;SDS011;13185;50.872;5.306;2023-08-06T05:03:53;2.63;;;2.15;;
25237;SDS011;13185;50.872;5.306;2023-08-06T05:06:21;3.85;;;1.88;;
25237;SDS011;13185;50.872;5.306;2023-08-06T05:09:01;4.40;;;1.80;;
25237;SDS011;13185;50.872;5.306;2023-08-06T05:11:33;4.68;;;1.98;;
25237;SDS011;13185;50.872;5.306;2023-08-06T05:14:05;2.47;;;1.50;;
25237;SDS011;13185;50.872;5.306;2023-08-06T05:16:36;1.75;;;0.95;;
25237;SDS011;13185;50.872;5.306;2023-08-06T05:19:02;2.08;;;1.63;;
25237;SDS011;13185;50.872;5.306;2023-08-06T05:21:30;2.63;;;1.55;;
25237;SDS011;13185;50.872;5.306;2023-08-06T05:24:02;2.33;;;1.27;;
25237;SDS011;13185;50.872;5.306;2023-08-06T05:26:38;1.63;;;1.27;;
25237;SDS011;13185;50.872;5.306;2023-08-06T05:29:03;1.90;;;1.70;;
25237;SDS011;13185;50.872;5.306;2023-08-06T05:31:29;2.80;;;1.88;;
25237;SDS011;13185;50.872;5.306;2023-08-06T05:33:55;1.75;;;1.60;;
25237;SDS011;13185;50.872;5.306;2023-08-06T05:36:23;2.55;;;1.90;;
25237;SDS011;13185;50.872;5.306;2023-08-06T05:38:52;2.90;;;1.63;;
25237;SDS011;13185;50.872;5.306;2023-08-06T05:41:38;1.92;;;1.60;;
25237;SDS011;13185;50.872;5.306;2023-08-06T05:44:06;1.95;;;1.08;;
25237;SDS011;13185;50.872;5.306;2023-08-06T05:46:40;1.10;;;0.98;;
25237;SDS011;13185;50.872;5.306;2023-08-06T05:49:16;0.82;;;0.32;;
25237;SDS011;13185;50.872;5.306;2023-08-06T05:51:41;0.95;;;0.60;;
25237;SDS011;13185;50.872;5.306;2023-08-06T05:54:13;0.95;;;0.73;;
25237;SDS011;13185;50.872;5.306;2023-08-06T05:56:41;1.95;;;0.80;;
25237;SDS011;13185;50.872;5.306;2023-08-06T05:59:07;0.93;;;0.93;;
25237;SDS011;13185;50.872;5.306;2023-08-06T06:01:33;1.20;;;0.85;;
25237;SDS011;13185;50.872;5.306;2023-08-06T06:03:58;0.95;;;0.85;;
25237;SDS011;13185;50.872;5.306;2023-08-06T06:06:24;1.50;;;0.90;;
25237;SDS011;13185;50.872;5.306;2023-08-06T06:08:53;1.08;;;0.80;;
25237;SDS011;13185;50.872;5.306;2023-08-06T06:11:18;0.85;;;0.80;;
25237;SDS011;13185;50.872;5.306;2023-08-06T06:13:49;2.42;;;0.70;;
25237;SDS011;13185;50.872;5.306;2023-08-06T06:16:16;0.75;;;0.50;;
25237;SDS011;13185;50.872;5.306;2023-08-06T06:18:44;0.47;;;0.30;;
25237;SDS011;13185;50.872;5.306;2023-08-06T06:21:10;0.68;;;0.50;;
25237;SDS011;13185;50.872;5.306;2023-08-06T06:23:38;1.05;;;0.40;;
25237;SDS011;13185;50.872;5.306;2023-08-06T06:26:04;2.15;;;0.70;;
25237;SDS011;13185;50.872;5.306;2023-08-06T06:28:35;0.68;;;0.55;;
25237;SDS011;13185;50.872;5.306;2023-08-06T06:31:01;2.30;;;0.85;;
25237;SDS011;13185;50.872;5.306;2023-08-06T06:33:27;1.88;;;1.20;;
25237;SDS011;13185;50.872;5.306;2023-08-06T06:35:53;2.70;;;1.33;;
25237;SDS011;13185;50.872;5.306;2023-08-06T06:38:18;2.13;;;1.35;;
25237;SDS011;13185;50.872;5.306;2023-08-06T06:40:52;3.60;;;1.70;;
25237;SDS011;13185;50.872;5.306;2023-08-06T06:43:19;2.28;;;1.83;;
25237;SDS011;13185;50.872;5.306;2023-08-06T06:45:44;2.28;;;1.98;;
25237;SDS011;13185;50.872;5.306;2023-08-06T06:48:12;2.60;;;1.85;;
25237;SDS011;13185;50.872;5.306;2023-08-06T06:50:38;4.93;;;2.17;;
25237;SDS011;13185;50.872;5.306;2023-08-06T06:53:08;2.90;;;1.90;;
25237;SDS011;13185;50.872;5.306;2023-08-06T06:55:34;3.20;;;1.98;;
25237;SDS011;13185;50.872;5.306;2023-08-06T06:58:00;3.08;;;2.13;;
25237;SDS011;13185;50.872;5.306;2023-08-06T07:00:26;2.75;;;1.90;;
25237;SDS011;13185;50.872;5.306;2023-08-06T07:02:51;3.40;;;2.13;;
25237;SDS011;13185;50.872;5.306;2023-08-06T07:05:18;4.05;;;2.03;;
25237;SDS011;13185;50.872;5.306;2023-08-06T07:07:43;3.72;;;2.15;;
25237;SDS011;13185;50.872;5.306;2023-08-06T07:10:12;2.97;;;1.70;;
25237;SDS011;13185;50.872;5.306;2023-08-06T07:16:47;2.83;;;2.05;;
25237;SDS011;13185;50.872;5.306;2023-08-06T07:19:12;5.45;;;1.35;;
25237;SDS011;13185;50.872;5.306;2023-08-06T07:21:38;3.90;;;1.13;;
25237;SDS011;13185;50.872;5.306;2023-08-06T07:24:06;3.38;;;1.38;;
25237;SDS011;13185;50.872;5.306;2023-08-06T07:26:39;4.85;;;1.55;;
25237;SDS011;13185;50.872;5.306;2023-08-06T07:29:04;2.90;;;1.17;;
25237;SDS011;13185;50.872;5.306;2023-08-06T07:31:30;4.63;;;1.67;;
25237;SDS011;13185;50.872;5.306;2023-08-06T07:33:56;3.38;;;1.38;;
25237;SDS011;13185;50.872;5.306;2023-08-06T07:36:23;4.78;;;1.20;;
25237;SDS011;13185;50.872;5.306;2023-08-06T07:38:52;5.05;;;1.50;;
25237;SDS011;13185;50.872;5.306;2023-08-06T07:41:28;2.92;;;1.33;;
25237;SDS011;13185;50.872;5.306;2023-08-06T07:44:32;3.05;;;1.17;;
25237;SDS011;13185;50.872;5.306;2023-08-06T07:47:58;6.45;;;1.65;;
25237;SDS011;13185;50.872;5.306;2023-08-06T07:51:25;4.82;;;2.13;;
25237;SDS011;13185;50.872;5.306;2023-08-06T07:53:56;3.60;;;1.70;;
25237;SDS011;13185;50.872;5.306;2023-08-06T07:56:30;5.32;;;2.30;;
25237;SDS011;13185;50.872;5.306;2023-08-06T07:59:19;5.00;;;1.80;;
25237;SDS011;13185;50.872;5.306;2023-08-06T08:02:28;4.05;;;1.88;;
25237;SDS011;13185;50.872;5.306;2023-08-06T08:05:12;5.38;;;2.13;;
25237;SDS011;13185;50.872;5.306;2023-08-06T08:07:38;3.60;;;1.63;;
25237;SDS011;13185;50.872;5.306;2023-08-06T08:10:09;6.38;;;1.70;;
25237;SDS011;13185;50.872;5.306;2023-08-06T08:12:37;5.30;;;1.95;;
25237;SDS011;13185;50.872;5.306;2023-08-06T08:15:06;6.88;;;1.77;;
25237;SDS011;13185;50.872;5.306;2023-08-06T08:17:31;3.15;;;1.48;;
25237;SDS011;13185;50.872;5.306;2023-08-06T08:20:04;3.33;;;1.38;;
25237;SDS011;13185;50.872;5.306;2023-08-06T08:22:34;5.25;;;1.33;;
25237;SDS011;13185;50.872;5.306;2023-08-06T08:25:25;3.92;;;1.73;;
25237;SDS011;13185;50.872;5.306;2023-08-06T08:27:57;4.72;;;1.77;;
25237;SDS011;13185;50.872;5.306;2023-08-06T08:30:34;8.60;;;2.42;;
25237;SDS011;13185;50.872;5.306;2023-08-06T08:33:02;7.28;;;2.70;;
25237;SDS011;13185;50.872;5.306;2023-08-06T08:35:41;5.32;;;1.80;;
25237;SDS011;13185;50.872;5.306;2023-08-06T08:38:07;5.90;;;1.50;;
25237;SDS011;13185;50.872;5.306;2023-08-06T08:40:33;3.83;;;1.38;;
25237;SDS011;13185;50.872;5.306;2023-08-06T08:43:06;5.60;;;1.90;;
25237;SDS011;13185;50.872;5.306;2023-08-06T08:45:32;6.78;;;1.27;;
25237;SDS011;13185;50.872;5.306;2023-08-06T08:48:04;5.65;;;1.70;;
25237;SDS011;13185;50.872;5.306;2023-08-06T08:50:30;3.60;;;1.17;;
25237;SDS011;13185;50.872;5.306;2023-08-06T08:52:59;8.05;;;1.48;;
25237;SDS011;13185;50.872;5.306;2023-08-06T08:55:35;5.38;;;1.55;;
25237;SDS011;13185;50.872;5.306;2023-08-06T08:58:07;8.38;;;1.52;;
25237;SDS011;13185;50.872;5.306;2023-08-06T09:00:35;4.57;;;1.00;;
25237;SDS011;13185;50.872;5.306;2023-08-06T09:03:05;4.15;;;0.90;;
25237;SDS011;13185;50.872;5.306;2023-08-06T09:05:35;10.43;;;1.23;;
25237;SDS011;13185;50.872;5.306;2023-08-06T09:11:27;6.90;;;1.73;;
25237;SDS011;13185;50.872;5.306;2023-08-06T09:14:06;6.80;;;0.77;;
25237;SDS011;13185;50.872;5.306;2023-08-06T09:16:39;11.32;;;1.00;;
25237;SDS011;13185;50.872;5.306;2023-08-06T09:22:57;7.80;;;1.95;;
25237;SDS011;13185;50.872;5.306;2023-08-06T09:40:36;4.30;;;0.90;;
25237;SDS011;13185;50.872;5.306;2023-08-06T09:43:02;4.47;;;0.70;;
25237;SDS011;13185;50.872;5.306;2023-08-06T09:45:30;6.88;;;1.02;;
25237;SDS011;13185;50.872;5.306;2023-08-06T09:47:58;6.13;;;0.90;;
25237;SDS011;13185;50.872;5.306;2023-08-06T09:50:28;3.75;;;0.70;;
25237;SDS011;13185;50.872;5.306;2023-08-06T09:52:56;6.28;;;0.75;;
25237;SDS011;13185;50.872;5.306;2023-08-06T09:55:24;4.00;;;0.70;;
25237;SDS011;13185;50.872;5.306;2023-08-06T09:57:53;5.38;;;0.80;;
25237;SDS011;13185;50.872;5.306;2023-08-06T10:00:20;5.75;;;0.90;;
25237;SDS011;13185;50.872;5.306;2023-08-06T10:02:46;3.53;;;0.70;;
25237;SDS011;13185;50.872;5.306;2023-08-06T10:05:12;4.90;;;1.13;;
25237;SDS011;13185;50.872;5.306;2023-08-06T10:07:38;4.75;;;1.40;;
25237;SDS011;13185;50.872;5.306;2023-08-06T10:10:05;4.47;;;0.85;;
25237;SDS011;13185;50.872;5.306;2023-08-06T10:12:33;5.60;;;1.00;;
25237;SDS011;13185;50.872;5.306;2023-08-06T10:15:02;5.18;;;0.95;;
25237;SDS011;13185;50.872;5.306;2023-08-06T10:17:32;5.47;;;1.05;;
25237;SDS011;13185;50.872;5.306;2023-08-06T10:19:59;6.25;;;1.20;;
25237;SDS011;13185;50.872;5.306;2023-08-06T10:22:25;11.77;;;1.42;;
25237;SDS011;13185;50.872;5.306;2023-08-06T10:24:56;6.15;;;1.50;;
25237;SDS011;13185;50.872;5.306;2023-08-06T10:27:27;2.80;;;0.70;;
25237;SDS011;13185;50.872;5.306;2023-08-06T10:29:53;1.85;;;0.90;;
25237;SDS011;13185;50.872;5.306;2023-08-06T10:32:18;5.82;;;0.80;;
25237;SDS011;13185;50.872;5.306;2023-08-06T10:34:57;2.67;;;0.80;;
25237;SDS011;13185;50.872;5.306;2023-08-06T10:37:57;1.98;;;0.63;;
25237;SDS011;13185;50.872;5.306;2023-08-06T10:40:15;8.05;;;1.15;;
25237;SDS011;13185;50.872;5.306;2023-08-06T10:42:46;3.88;;;0.70;;
25237;SDS011;13185;50.872;5.306;2023-08-06T10:47:39;2.95;;;0.60;;
25237;SDS011;13185;50.872;5.306;2023-08-06T10:50:06;2.00;;;0.40;;
25237;SDS011;13185;50.872;5.306;2023-08-06T10:52:34;3.28;;;0.50;;
25237;SDS011;13185;50.872;5.306;2023-08-06T10:54:59;1.17;;;0.40;;
25237;SDS011;13185;50.872;5.306;2023-08-06T10:57:25;2.33;;;0.73;;
25237;SDS011;13185;50.872;5.306;2023-08-06T10:59:50;2.88;;;0.73;;
25237;SDS011;13185;50.872;5.306;2023-08-06T11:02:16;2.38;;;0.30;;
25237;SDS011;13185;50.872;5.306;2023-08-06T11:04:42;2.20;;;0.30;;
25237;SDS011;13185;50.872;5.306;2023-08-06T11:07:08;3.40;;;0.63;;
25237;SDS011;13185;50.872;5.306;2023-08-06T11:09:33;1.45;;;0.30;;
25237;SDS011;13185;50.872;5.306;2023-08-06T11:11:59;2.72;;;0.40;;
25237;SDS011;13185;50.872;5.306;2023-08-06T11:14:24;3.28;;;0.32;;
25237;SDS011;13185;50.872;5.306;2023-08-06T11:16:50;3.10;;;0.50;;
25237;SDS011;13185;50.872;5.306;2023-08-06T11:19:16;2.83;;;0.60;;
25237;SDS011;13185;50.872;5.306;2023-08-06T11:21:42;4.10;;;0.40;;
25237;SDS011;13185;50.872;5.306;2023-08-06T11:24:11;2.92;;;0.35;;
25237;SDS011;13185;50.872;5.306;2023-08-06T11:26:37;3.28;;;0.43;;
25237;SDS011;13185;50.872;5.306;2023-08-06T11:29:05;2.70;;;0.50;;
25237;SDS011;13185;50.872;5.306;2023-08-06T11:31:30;3.42;;;0.43;;
25237;SDS011;13185;50.872;5.306;2023-08-06T11:33:56;2.97;;;0.63;;
25237;SDS011;13185;50.872;5.306;2023-08-06T11:36:28;3.97;;;0.95;;
25237;SDS011;13185;50.872;5.306;2023-08-06T11:38:58;2.85;;;0.68;;
25237;SDS011;13185;50.872;5.306;2023-08-06T11:41:24;6.07;;;0.75;;
25237;SDS011;13185;50.872;5.306;2023-08-06T11:43:49;4.03;;;0.50;;
25237;SDS011;13185;50.872;5.306;2023-08-06T11:46:15;3.80;;;0.70;;
25237;SDS011;13185;50.872;5.306;2023-08-06T11:48:50;5.32;;;0.80;;
25237;SDS011;13185;50.872;5.306;2023-08-06T11:51:22;4.40;;;0.60;;
25237;SDS011;13185;50.872;5.306;2023-08-06T11:53:49;4.50;;;0.40;;
25237;SDS011;13185;50.872;5.306;2023-08-06T11:56:15;2.22;;;0.30;;
25237;SDS011;13185;50.872;5.306;2023-08-06T11:58:42;3.05;;;1.02;;
25237;SDS011;13185;50.872;5.306;2023-08-06T12:01:08;2.35;;;0.30;;
25237;SDS011;13185;50.872;5.306;2023-08-06T12:03:38;4.75;;;0.63;;
25237;SDS011;13185;50.872;5.306;2023-08-06T12:06:04;2.58;;;0.30;;
25237;SDS011;13185;50.872;5.306;2023-08-06T12:08:30;4.95;;;0.68;;
25237;SDS011;13185;50.872;5.306;2023-08-06T12:10:55;3.65;;;0.45;;
25237;SDS011;13185;50.872;5.306;2023-08-06T12:13:21;2.95;;;0.43;;
25237;SDS011;13185;50.872;5.306;2023-08-06T12:15:47;3.22;;;0.40;;
25237;SDS011;13185;50.872;5.306;2023-08-06T12:18:12;4.00;;;0.93;;
25237;SDS011;13185;50.872;5.306;2023-08-06T12:20:38;1.95;;;0.40;;
25237;SDS011;13185;50.872;5.306;2023-08-06T12:23:03;4.10;;;0.50;;
25237;SDS011;13185;50.872;5.306;2023-08-06T12:25:29;5.63;;;0.95;;
25237;SDS011;13185;50.872;5.306;2023-08-06T12:27:55;3.85;;;0.50;;
25237;SDS011;13185;50.872;5.306;2023-08-06T12:30:20;3.53;;;0.60;;
25237;SDS011;13185;50.872;5.306;2023-08-06T12:32:46;2.85;;;0.50;;
25237;SDS011;13185;50.872;5.306;2023-08-06T12:35:11;5.53;;;0.63;;
25237;SDS011;13185;50.872;5.306;2023-08-06T12:37:39;4.35;;;0.68;;
25237;SDS011;13185;50.872;5.306;2023-08-06T12:40:04;3.72;;;0.93;;
25237;SDS011;13185;50.872;5.306;2023-08-06T12:42:30;4.75;;;0.68;;
25237;SDS011;13185;50.872;5.306;2023-08-06T12:44:56;4.05;;;0.73;;
25237;SDS011;13185;50.872;5.306;2023-08-06T12:47:22;5.10;;;0.63;;
25237;SDS011;13185;50.872;5.306;2023-08-06T12:49:47;4.15;;;0.85;;
25237;SDS011;13185;50.872;5.306;2023-08-06T12:52:13;2.08;;;0.63;;
25237;SDS011;13185;50.872;5.306;2023-08-06T12:54:40;5.57;;;0.98;;
25237;SDS011;13185;50.872;5.306;2023-08-06T12:57:06;6.80;;;0.73;;
25237;SDS011;13185;50.872;5.306;2023-08-06T12:59:31;4.55;;;0.90;;
25237;SDS011;13185;50.872;5.306;2023-08-06T13:01:58;4.22;;;0.90;;
25237;SDS011;13185;50.872;5.306;2023-08-06T13:04:24;4.10;;;0.93;;
25237;SDS011;13185;50.872;5.306;2023-08-06T13:06:50;5.22;;;1.15;;
25237;SDS011;13185;50.872;5.306;2023-08-06T13:09:15;3.10;;;0.82;;
25237;SDS011;13185;50.872;5.306;2023-08-06T13:11:41;6.35;;;0.80;;
25237;SDS011;13185;50.872;5.306;2023-08-06T13:14:08;2.58;;;0.73;;
25237;SDS011;13185;50.872;5.306;2023-08-06T13:16:35;7.28;;;1.13;;
25237;SDS011;13185;50.872;5.306;2023-08-06T13:19:02;3.47;;;1.00;;
25237;SDS011;13185;50.872;5.306;2023-08-06T13:21:35;4.13;;;1.13;;
25237;SDS011;13185;50.872;5.306;2023-08-06T13:24:23;2.67;;;0.70;;
25237;SDS011;13185;50.872;5.306;2023-08-06T13:26:49;6.07;;;0.98;;
25237;SDS011;13185;50.872;5.306;2023-08-06T13:29:14;4.53;;;1.27;;
25237;SDS011;13185;50.872;5.306;2023-08-06T13:31:40;2.63;;;0.60;;
25237;SDS011;13185;50.872;5.306;2023-08-06T13:34:05;4.22;;;0.77;;
25237;SDS011;13185;50.872;5.306;2023-08-06T13:36:31;5.45;;;0.73;;
25237;SDS011;13185;50.872;5.306;2023-08-06T13:38:56;4.00;;;1.38;;
25237;SDS011;13185;50.872;5.306;2023-08-06T13:41:22;6.72;;;1.17;;
25237;SDS011;13185;50.872;5.306;2023-08-06T13:43:48;5.63;;;0.90;;
25237;SDS011;13185;50.872;5.306;2023-08-06T13:51:41;8.65;;;1.20;;
25237;SDS011;13185;50.872;5.306;2023-08-06T13:54:06;4.60;;;1.23;;
25237;SDS011;13185;50.872;5.306;2023-08-06T13:56:32;5.22;;;0.90;;
25237;SDS011;13185;50.872;5.306;2023-08-06T13:58:58;3.38;;;1.00;;
25237;SDS011;13185;50.872;5.306;2023-08-06T14:01:23;4.07;;;0.95;;
25237;SDS011;13185;50.872;5.306;2023-08-06T14:03:49;5.68;;;0.85;;
25237;SDS011;13185;50.872;5.306;2023-08-06T14:06:14;4.32;;;0.57;;
25237;SDS011;13185;50.872;5.306;2023-08-06T14:08:40;5.50;;;1.23;;
25237;SDS011;13185;50.872;5.306;2023-08-06T14:11:05;2.72;;;0.70;;
25237;SDS011;13185;50.872;5.306;2023-08-06T14:13:31;5.38;;;0.73;;
25237;SDS011;13185;50.872;5.306;2023-08-06T14:15:57;3.60;;;0.98;;
25237;SDS011;13185;50.872;5.306;2023-08-06T14:18:22;4.80;;;0.70;;
25237;SDS011;13185;50.872;5.306;2023-08-06T14:20:48;4.80;;;0.95;;
25237;SDS011;13185;50.872;5.306;2023-08-06T14:23:13;4.03;;;0.77;;
25237;SDS011;13185;50.872;5.306;2023-08-06T14:25:39;7.68;;;1.10;;
25237;SDS011;13185;50.872;5.306;2023-08-06T14:28:05;3.97;;;0.73;;
25237;SDS011;13185;50.872;5.306;2023-08-06T14:30:31;4.97;;;0.57;;
25237;SDS011;13185;50.872;5.306;2023-08-06T14:32:58;4.32;;;0.43;;
25237;SDS011;13185;50.872;5.306;2023-08-06T14:35:25;4.60;;;0.65;;
25237;SDS011;13185;50.872;5.306;2023-08-06T14:37:51;5.32;;;0.95;;
25237;SDS011;13185;50.872;5.306;2023-08-06T14:40:16;2.97;;;0.57;;
25237;SDS011;13185;50.872;5.306;2023-08-06T14:42:42;2.47;;;0.50;;
25237;SDS011;13185;50.872;5.306;2023-08-06T14:45:07;4.05;;;0.40;;
25237;SDS011;13185;50.872;5.306;2023-08-06T14:47:33;1.98;;;0.30;;
25237;SDS011;13185;50.872;5.306;2023-08-06T14:49:59;2.03;;;0.30;;
25237;SDS011;13185;50.872;5.306;2023-08-06T14:52:24;1.55;;;0.38;;
25237;SDS011;13185;50.872;5.306;2023-08-06T14:54:50;1.63;;;0.20;;
25237;SDS011;13185;50.872;5.306;2023-08-06T14:57:17;2.13;;;0.32;;
25237;SDS011;13185;50.872;5.306;2023-08-06T14:59:43;2.08;;;0.50;;
25237;SDS011;13185;50.872;5.306;2023-08-06T15:02:09;1.42;;;0.40;;
25237;SDS011;13185;50.872;5.306;2023-08-06T15:04:34;3.42;;;0.98;;
25237;SDS011;13185;50.872;5.306;2023-08-06T15:06:59;1.85;;;0.52;;
25237;SDS011;13185;50.872;5.306;2023-08-06T15:09:25;1.75;;;0.30;;
25237;SDS011;13185;50.872;5.306;2023-08-06T15:11:50;2.30;;;0.40;;
25237;SDS011;13185;50.872;5.306;2023-08-06T15:14:16;2.88;;;0.30;;
25237;SDS011;13185;50.872;5.306;2023-08-06T15:16:42;1.83;;;0.30;;
25237;SDS011;13185;50.872;5.306;2023-08-06T15:19:07;2.50;;;0.28;;
25237;SDS011;13185;50.872;5.306;2023-08-06T15:21:33;3.78;;;0.90;;
25237;SDS011;13185;50.872;5.306;2023-08-06T15:23:58;3.15;;;0.60;;
25237;SDS011;13185;50.872;5.306;2023-08-06T15:26:24;2.30;;;0.40;;
25237;SDS011;13185;50.872;5.306;2023-08-06T15:28:49;3.53;;;0.50;;
25237;SDS011;13185;50.872;5.306;2023-08-06T15:31:17;2.03;;;0.40;;
25237;SDS011;13185;50.872;5.306;2023-08-06T15:33:45;3.25;;;0.50;;
25237;SDS011;13185;50.872;5.306;2023-08-06T15:36:10;5.55;;;0.52;;